Greenleaf, ID (83626)

9:59 AM MDT on October 25, 2014 (GMT -0600)
Rural hilltop | Change Station
CLOSE
Current Station
Personal Weather Station
Location: Wilder, ID
Elevation: 2650 ft
Nearby Weather Stations
Active Advisory: Dense Fog Advisory

Elev 2650 ft 43.62 °N, 116.84 °W | Updated 6 seconds ago

Overcast
Overcast
43.6 °F
Feels Like 44 °F
N
0.0
Wind Variable Wind from NE
Gusts 6.0 mph

Today
High -- | Low -- °F
--% Chance of Precip.
Yesterday
High -- | Low -- °F
Precip. -- in
8:14 AM 6:47 PM
Waxing Crescent, 3% visible
Pressure 29.86 in
Visibility 0.5 miles
Clouds Overcast 200 ft
Windchill 44 °F
Dew Point 44 °F
Humidity 100%
Rainfall 0.00 in
Snow Depth Not available.
UV 0 out of 12
Pollen 4.20 out of 12
Ozone Good
PM2.5 Good
Flu Activity No Activity
METAR KEUL 251555Z AUTO 00000KT 1/2SM OVC002 07/03 A2986 RMK AO1

More Conditions Fewer Conditions

Pressure 29.86 in
Visibility 0.5 miles
Clouds Overcast 200 ft
Windchill 44 °F
Dew Point 44 °F
Humidity 100%
Rainfall 0.00 in
Snow Depth Not available.
UV 0 out of 12
Pollen 4.20 out of 12
Ozone Good
PM2.5 Good
Flu Activity No Activity
METAR KEUL 251555Z AUTO 00000KT 1/2SM OVC002 07/03 A2986 RMK AO1

More Conditions Fewer Conditions

10-Day Weather Forecast

Almanac

Astronomy

Oct. 25, 2014 Rise Set
Actual Time 8:14 AM MDT 6:47 PM MDT
Civil Twilight 7:44 AM MDT 7:17 PM MDT
Nautical Twilight 7:11 AM MDT 7:50 PM MDT
Astronomical Twilight 6:37 AM MDT 8:23 PM MDT
Moon 9:59 AM MDT 8:11 PM MDT
Length of Visible Light 11h 32m
Length of Day
10h 33m
Tomorrow will be 2m 47s shorter.
Waxing Crescent, 3% of the Moon is Illuminated
Today
Waxing Crescent
Oct 30
First Quarter
Nov 6
Full
Nov 14
Last Quarter
Nov 22
New

Today's Extremes

State Highs State Lows

Community

WunderPhotos

Upload Photos

1,764,879 photos uploaded!

Nearby

Air Quality

  Air Quality AQ Index Pollutant
Yesterday Good
PM10
Yesterday Good
OZONE
Current Good
PM2.5
Current Good
OZONE
Saturday Good
OZONE
Sunday Good
OZONE
Monday Good
OZONE
Tuesday Good
OZONE

Snow Depth

Station Depth Elevation
Bogus Basin 0 in 6340 ft
Van Wyck 0 in 4920 ft
South Mountain 0 in 6500 ft
Trinity Mountain 1 in 7770 ft
Cozy Cove 1 in 5380 ft

Earthquake Activity

City Distance Mag. Time & Date
No recent earthquake activity has been reported nearby.
Minimum magnitude displayed is 2.5.

Coastal Water Temperatures

Place Temperature
No Stations Reporting

Nearby Weather Stations